createdAt,value
2019-01-15T00:01:59.509Z,11.97
2019-01-15T00:04:29.638Z,17.53
2019-01-15T00:06:59.786Z,20.03
2019-01-15T00:09:29.839Z,15.73
2019-01-15T00:12:00.006Z,15.83
2019-01-15T00:14:30.257Z,16.77
2019-01-15T00:17:01.449Z,19.07
2019-01-15T00:19:31.643Z,15.27
2019-01-15T00:22:01.781Z,16.87
2019-01-15T00:24:32.970Z,13.70
2019-01-15T00:27:03.116Z,16.70
2019-01-15T00:29:33.717Z,17.33
2019-01-15T00:32:04.019Z,20.37
2019-01-15T00:34:34.182Z,18.03
2019-01-15T00:37:04.469Z,17.70
2019-01-15T00:39:34.628Z,15.60
2019-01-15T00:42:04.975Z,20.57
2019-01-15T00:44:35.294Z,17.90
2019-01-15T00:47:05.426Z,17.93
2019-01-15T00:49:35.682Z,12.40
2019-01-15T00:52:05.905Z,13.47
2019-01-15T00:54:36.105Z,14.47
2019-01-15T00:57:06.263Z,15.73
2019-01-15T00:59:36.380Z,21.07
2019-01-15T01:02:06.459Z,22.43
2019-01-15T01:04:36.493Z,19.73
2019-01-15T01:07:06.717Z,18.60
2019-01-15T01:09:37.961Z,18.93
2019-01-15T01:12:08.090Z,19.30
2019-01-15T01:14:38.211Z,12.97
2019-01-15T01:17:08.442Z,20.13
2019-01-15T01:19:38.509Z,17.97
2019-01-15T01:22:08.771Z,15.13
2019-01-15T01:24:38.922Z,18.80
2019-01-15T01:27:09.012Z,14.53
2019-01-15T01:29:39.177Z,17.60
2019-01-15T01:32:09.234Z,14.20
2019-01-15T01:34:39.377Z,17.50
2019-01-15T01:37:09.587Z,19.27
2019-01-15T01:39:39.788Z,23.60
2019-01-15T01:42:09.836Z,19.10
2019-01-15T01:44:40.968Z,18.33
2019-01-15T01:47:11.137Z,21.93
2019-01-15T01:49:41.263Z,20.80
2019-01-15T01:52:11.329Z,16.17
2019-01-15T01:54:41.549Z,23.63
2019-01-15T01:57:11.685Z,9.37
2019-01-15T01:59:41.930Z,11.07
2019-01-15T02:02:12.126Z,19.80
2019-01-15T02:04:42.171Z,12.93
2019-01-15T02:07:12.273Z,15.93
2019-01-15T02:09:42.410Z,20.97
2019-01-15T02:12:12.536Z,15.67
2019-01-15T02:14:42.759Z,19.13
2019-01-15T02:17:12.889Z,15.47
2019-01-15T02:19:42.963Z,14.20
2019-01-15T02:22:13.208Z,16.67
2019-01-15T02:24:43.334Z,15.37
2019-01-15T02:27:14.087Z,16.97
2019-01-15T02:29:44.301Z,21.17
2019-01-15T02:32:14.390Z,20.17
2019-01-15T02:34:44.537Z,19.47
2019-01-15T02:37:14.706Z,19.77
2019-01-15T02:39:44.950Z,16.13
2019-01-15T02:42:15.166Z,21.90
2019-01-15T02:44:45.354Z,15.73
2019-01-15T02:47:15.398Z,13.30
2019-01-15T02:49:45.541Z,14.70
2019-01-15T02:52:15.676Z,15.67
2019-01-15T02:54:45.825Z,21.07
2019-01-15T02:57:15.877Z,15.83
2019-01-15T02:59:46.028Z,19.80
2019-01-15T03:02:16.171Z,20.33
2019-01-15T03:04:46.319Z,19.50
2019-01-15T03:07:16.443Z,21.20
2019-01-15T03:09:46.646Z,16.70
2019-01-15T03:12:16.799Z,19.43
2019-01-15T03:14:46.910Z,17.63
2019-01-15T03:17:17.029Z,21.17
2019-01-15T03:19:47.270Z,13.97
2019-01-15T03:22:17.365Z,24.40
2019-01-15T03:24:47.494Z,16.50
2019-01-15T03:27:17.669Z,17.17
2019-01-15T03:29:47.857Z,15.40
2019-01-15T03:32:17.971Z,19.20
2019-01-15T03:34:48.098Z,13.93
2019-01-15T03:37:18.257Z,20.30
2019-01-15T03:39:48.374Z,19.83
2019-01-15T03:42:18.461Z,19.03
2019-01-15T03:44:48.583Z,14.67
2019-01-15T03:47:18.665Z,12.30
2019-01-15T03:49:48.993Z,17.90
2019-01-15T03:52:19.175Z,16.83
2019-01-15T03:54:49.298Z,18.37
2019-01-15T03:57:19.422Z,17.10
2019-01-15T03:59:49.570Z,17.97
2019-01-15T04:02:19.798Z,16.20
2019-01-15T04:04:49.949Z,15.53
2019-01-15T04:07:20.257Z,23.30
2019-01-15T04:09:50.568Z,18.10
2019-01-15T04:12:20.858Z,14.93
2019-01-15T04:14:52.003Z,17.13
2019-01-15T04:17:22.151Z,14.00
2019-01-15T04:19:52.370Z,14.80
2019-01-15T04:22:22.566Z,21.93
2019-01-15T04:24:52.646Z,19.30
2019-01-15T04:27:22.766Z,22.10
2019-01-15T04:29:52.926Z,22.10
2019-01-15T04:32:23.161Z,19.83
2019-01-15T04:34:53.259Z,16.70
2019-01-15T04:37:23.317Z,18.30
2019-01-15T04:39:53.467Z,26.77
2019-01-15T04:42:23.609Z,20.17
2019-01-15T04:44:53.739Z,16.80
2019-01-15T04:47:23.986Z,14.00
2019-01-15T04:49:54.049Z,23.67
2019-01-15T04:52:24.476Z,20.43
2019-01-15T04:54:54.678Z,18.40
2019-01-15T04:57:25.122Z,14.37
2019-01-15T04:59:55.398Z,20.40
2019-01-15T05:02:25.467Z,17.37
2019-01-15T05:04:56.654Z,16.87
2019-01-15T05:07:26.697Z,19.17
2019-01-15T05:09:57.780Z,16.73
2019-01-15T05:12:27.992Z,23.40
2019-01-15T05:14:58.028Z,13.43
2019-01-15T05:17:28.173Z,15.50
2019-01-15T05:19:58.367Z,17.87
2019-01-15T05:22:28.606Z,18.83
2019-01-15T05:24:58.819Z,14.50
2019-01-15T05:27:28.934Z,25.10
2019-01-15T05:29:59.055Z,17.73
2019-01-15T05:32:29.158Z,15.90
2019-01-15T05:34:59.222Z,19.33
2019-01-15T05:37:29.367Z,16.57
2019-01-15T05:39:59.587Z,12.63
2019-01-15T05:42:29.797Z,20.37
2019-01-15T05:45:00.271Z,12.93
2019-01-15T05:47:30.878Z,21.33
2019-01-15T05:50:01.157Z,17.13
2019-01-15T05:52:31.408Z,23.77
2019-01-15T05:55:01.732Z,14.57
2019-01-15T05:57:31.980Z,17.27
2019-01-15T06:00:02.147Z,21.63
2019-01-15T06:02:32.318Z,21.63
2019-01-15T06:05:02.451Z,20.80
2019-01-15T06:07:35.782Z,20.20
2019-01-15T06:10:08.171Z,23.33
2019-01-15T06:12:38.298Z,40.13
2019-01-15T06:15:09.782Z,29.00
2019-01-15T06:17:40.935Z,23.23
2019-01-15T06:20:12.993Z,28.33
2019-01-15T06:22:43.098Z,26.03
2019-01-15T06:25:13.336Z,21.60
2019-01-15T06:27:43.501Z,16.43
2019-01-15T06:30:14.295Z,29.13
2019-01-15T06:32:44.357Z,28.50
2019-01-15T06:35:14.497Z,38.70
2019-01-15T06:37:45.814Z,29.13
2019-01-15T06:40:16.114Z,31.80
2019-01-15T06:42:46.227Z,25.97
2019-01-15T06:45:21.500Z,22.53
2019-01-15T06:47:51.558Z,22.57
2019-01-15T06:50:21.596Z,15.87
2019-01-15T06:52:59.121Z,18.53
2019-01-15T06:55:29.178Z,13.63
2019-01-15T06:57:59.281Z,17.27
2019-01-15T07:00:29.522Z,19.20
2019-01-15T07:02:59.866Z,16.00
2019-01-15T07:05:30.093Z,19.77
2019-01-15T07:08:00.224Z,24.80
2019-01-15T07:10:35.599Z,18.30
2019-01-15T07:13:05.823Z,20.47
2019-01-15T07:15:35.930Z,20.73
2019-01-15T07:18:06.091Z,19.10
2019-01-15T07:20:36.165Z,16.70
2019-01-15T07:23:06.307Z,13.17
2019-01-15T07:25:36.489Z,17.90
2019-01-15T07:28:07.618Z,17.50
2019-01-15T07:30:46.762Z,21.93
2019-01-15T07:33:17.030Z,13.67
2019-01-15T07:35:47.178Z,17.63
2019-01-15T07:38:18.306Z,23.70
2019-01-15T07:40:48.446Z,21.17
2019-01-15T07:43:18.542Z,24.90
2019-01-15T07:45:48.583Z,14.87
2019-01-15T07:48:18.719Z,23.43
2019-01-15T07:50:48.837Z,34.70
2019-01-15T07:53:18.938Z,27.27
2019-01-15T07:55:49.159Z,31.80
2019-01-15T07:58:19.329Z,19.53
2019-01-15T08:00:49.389Z,13.97
2019-01-15T08:03:19.495Z,22.13
2019-01-15T08:05:49.742Z,19.27
2019-01-15T08:08:19.938Z,17.07
2019-01-15T08:10:56.795Z,16.20
2019-01-15T08:13:21.860Z,12.23
2019-01-15T08:15:51.945Z,15.60
2019-01-15T08:18:22.087Z,19.20
2019-01-15T08:20:52.150Z,22.33
2019-01-15T08:23:22.345Z,21.90
2019-01-15T08:25:52.578Z,17.27
2019-01-15T08:28:23.631Z,17.87
2019-01-15T08:30:53.723Z,16.33
2019-01-15T08:33:23.886Z,22.23
2019-01-15T08:35:54.131Z,25.00
2019-01-15T08:38:24.202Z,30.17
2019-01-15T08:40:54.377Z,28.43
2019-01-15T08:43:24.578Z,15.63
2019-01-15T08:45:55.342Z,19.00
2019-01-15T08:48:27.905Z,20.60
2019-01-15T08:50:58.210Z,18.87
2019-01-15T08:53:28.605Z,18.23
2019-01-15T08:55:59.890Z,23.53
2019-01-15T08:58:30.973Z,20.00
2019-01-15T09:01:01.167Z,26.97
2019-01-15T09:03:31.286Z,27.67
2019-01-15T09:06:01.466Z,23.53
2019-01-15T09:08:31.615Z,18.10
2019-01-15T09:11:01.797Z,19.23
2019-01-15T09:13:32.110Z,15.67
2019-01-15T09:16:02.250Z,20.80
2019-01-15T09:18:32.418Z,23.87
2019-01-15T09:21:02.562Z,18.73
2019-01-15T09:23:32.874Z,20.20
2019-01-15T09:26:02.986Z,18.07
2019-01-15T09:28:34.205Z,19.90
2019-01-15T09:31:04.371Z,32.23
2019-01-15T09:33:34.531Z,18.77
2019-01-15T09:36:04.659Z,21.13
2019-01-15T09:38:34.798Z,28.13
2019-01-15T09:41:04.872Z,21.50
2019-01-15T09:43:35.300Z,29.53
2019-01-15T09:46:05.622Z,19.10
2019-01-15T09:48:37.133Z,25.63
2019-01-15T09:51:07.462Z,21.03
2019-01-15T09:53:37.785Z,23.40
2019-01-15T09:56:08.006Z,19.30
2019-01-15T09:58:38.118Z,28.53
2019-01-15T10:01:08.265Z,21.33
2019-01-15T10:03:38.460Z,18.57
2019-01-15T10:06:08.502Z,25.37
2019-01-15T10:08:39.730Z,29.73
2019-01-15T10:11:09.858Z,24.57
2019-01-15T10:13:40.087Z,26.57
2019-01-15T10:16:11.263Z,22.23
2019-01-15T10:18:41.545Z,22.40
2019-01-15T10:21:11.757Z,23.27
2019-01-15T10:23:42.121Z,27.67
2019-01-15T10:26:12.188Z,21.40
2019-01-15T10:28:43.328Z,27.93
2019-01-15T10:32:06.455Z,25.70
2019-01-15T10:34:39.418Z,23.80
2019-01-15T10:37:10.401Z,28.40
2019-01-15T10:39:40.846Z,23.50
2019-01-15T10:42:10.967Z,25.77
2019-01-15T10:44:48.435Z,25.93
2019-01-15T10:47:13.923Z,19.77
2019-01-15T10:49:44.431Z,25.80
2019-01-15T10:52:14.574Z,20.83
2019-01-15T10:54:44.610Z,24.70
2019-01-15T10:57:14.730Z,23.23
2019-01-15T10:59:45.107Z,21.53
2019-01-15T11:02:15.225Z,23.17
2019-01-15T11:04:45.274Z,21.47
2019-01-15T11:07:16.497Z,21.87
2019-01-15T11:09:46.618Z,19.93
2019-01-15T11:12:16.685Z,20.20
2019-01-15T11:14:47.097Z,28.67
2019-01-15T11:17:17.298Z,20.53
2019-01-15T11:19:47.474Z,25.00
2019-01-15T11:22:17.867Z,22.47
2019-01-15T11:24:49.049Z,21.07
2019-01-15T11:27:19.306Z,20.83
2019-01-15T11:29:50.294Z,17.47
2019-01-15T11:32:20.430Z,20.37
2019-01-15T11:34:50.564Z,14.20
2019-01-15T11:37:21.921Z,22.13
2019-01-15T11:39:52.265Z,24.90
2019-01-15T11:42:22.554Z,17.33
2019-01-15T11:44:52.712Z,16.67
2019-01-15T11:47:22.888Z,19.33
2019-01-15T11:49:53.003Z,15.20
2019-01-15T11:52:23.154Z,17.73
2019-01-15T11:54:53.373Z,24.70
2019-01-15T11:57:23.404Z,19.97
2019-01-15T11:59:55.082Z,23.27
2019-01-15T12:02:43.297Z,23.97
2019-01-15T12:05:25.967Z,15.70
2019-01-15T12:08:14.605Z,18.87
2019-01-15T12:11:03.756Z,23.03
2019-01-15T12:13:51.882Z,19.23
2019-01-15T12:16:44.003Z,20.00
2019-01-15T12:19:41.703Z,21.13
2019-01-15T12:22:30.514Z,18.77
2019-01-15T12:25:17.937Z,25.80
2019-01-15T12:28:08.539Z,14.50
2019-01-15T12:31:10.640Z,19.60
2019-01-15T12:34:08.202Z,24.43
2019-01-15T12:36:52.250Z,21.77
2019-01-15T12:39:50.749Z,15.53
2019-01-15T12:42:52.110Z,22.60
2019-01-15T12:45:44.230Z,19.83
2019-01-15T12:48:37.390Z,19.93
2019-01-15T12:51:25.183Z,22.90
2019-01-15T12:54:12.908Z,16.77
2019-01-15T12:57:05.070Z,18.03
2019-01-15T12:59:52.795Z,20.23
2019-01-15T13:02:54.383Z,24.27
2019-01-15T13:05:42.131Z,16.00
2019-01-15T13:08:35.318Z,17.27
2019-01-15T13:11:33.501Z,21.50
2019-01-15T13:14:34.859Z,23.40
2019-01-15T13:17:26.176Z,22.23
2019-01-15T13:20:18.270Z,18.07
2019-01-15T13:23:16.493Z,22.13
2019-01-15T13:26:04.411Z,26.43
2019-01-15T13:28:53.779Z,23.77
2019-01-15T13:31:46.757Z,19.73
2019-01-15T13:34:33.058Z,27.33
2019-01-15T13:37:13.192Z,23.90
2019-01-15T13:40:20.692Z,23.20
2019-01-15T13:43:04.708Z,24.53
2019-01-15T13:45:47.499Z,20.20
2019-01-15T13:48:39.770Z,23.87
2019-01-15T13:51:34.675Z,27.33
2019-01-15T13:54:42.569Z,30.90
2019-01-15T13:57:49.833Z,26.13
2019-01-15T14:00:42.564Z,26.03
2019-01-15T14:03:29.642Z,22.43
2019-01-15T14:06:21.647Z,26.30
2019-01-15T14:09:00.491Z,21.53
2019-01-15T14:11:55.405Z,22.23
2019-01-15T14:14:59.476Z,30.37
2019-01-15T14:18:06.457Z,21.70
2019-01-15T14:20:53.554Z,21.00
2019-01-15T14:23:37.890Z,22.53
2019-01-15T14:26:41.989Z,24.10
2019-01-15T14:29:29.804Z,19.40
2019-01-15T14:32:27.726Z,18.60
2019-01-15T14:35:16.975Z,25.67
2019-01-15T14:38:18.345Z,20.47
2019-01-15T14:41:13.473Z,28.10
2019-01-15T14:44:01.006Z,31.50
2019-01-15T14:46:45.478Z,34.40
2019-01-15T14:49:33.000Z,35.20
2019-01-15T14:52:31.013Z,30.27
2019-01-15T14:55:23.169Z,36.33
2019-01-15T14:58:11.289Z,30.83
2019-01-15T15:00:57.278Z,36.43
2019-01-15T15:03:49.643Z,32.20
2019-01-15T15:06:46.935Z,31.70
2019-01-15T15:09:39.244Z,42.10
2019-01-15T15:12:34.286Z,39.70
2019-01-15T15:15:17.095Z,38.90
2019-01-15T15:18:13.293Z,36.57
2019-01-15T15:21:01.057Z,38.40
2019-01-15T15:24:08.492Z,40.03
2019-01-15T15:26:56.518Z,30.20
2019-01-15T15:29:51.922Z,32.13
2019-01-15T15:32:41.118Z,26.37
2019-01-15T15:35:36.327Z,25.93
2019-01-15T15:38:36.705Z,32.33
2019-01-15T15:41:24.711Z,33.43
2019-01-15T15:44:12.390Z,31.43
2019-01-15T15:47:00.411Z,31.90
2019-01-15T15:49:49.678Z,32.30
2019-01-15T15:52:37.546Z,29.93
2019-01-15T15:55:27.109Z,37.27
2019-01-15T15:58:17.980Z,27.73
2019-01-15T16:01:05.872Z,48.40
2019-01-15T16:03:57.975Z,43.30
2019-01-15T16:06:45.648Z,45.73
2019-01-15T16:09:50.364Z,53.50
2019-01-15T16:12:45.347Z,44.77
2019-01-15T16:15:34.590Z,32.13
2019-01-15T16:18:36.464Z,41.37
2019-01-15T16:21:24.570Z,32.63
2019-01-15T16:24:20.039Z,42.10
2019-01-15T16:27:07.452Z,36.47
2019-01-15T16:29:55.714Z,34.43
2019-01-15T16:32:45.522Z,29.80
2019-01-15T16:35:27.997Z,31.57
2019-01-15T16:38:12.949Z,30.07
2019-01-15T16:41:05.142Z,34.73
2019-01-15T16:43:52.953Z,30.60
2019-01-15T16:46:41.052Z,27.17
2019-01-15T16:49:33.836Z,30.73
2019-01-15T16:52:29.283Z,24.33
2019-01-15T16:55:17.165Z,24.70
2019-01-15T16:58:05.322Z,19.60
2019-01-15T17:00:53.399Z,20.97
2019-01-15T17:03:51.668Z,21.90
2019-01-15T17:06:49.951Z,22.43
2019-01-15T17:09:44.907Z,20.40
2019-01-15T17:12:37.140Z,22.00
2019-01-15T17:15:35.342Z,20.53
2019-01-15T17:18:30.500Z,24.73
2019-01-15T17:21:28.847Z,30.53
2019-01-15T17:24:33.472Z,24.53
2019-01-15T17:27:25.364Z,24.30
2019-01-15T17:30:26.610Z,26.87
2019-01-15T17:33:17.089Z,27.60
2019-01-15T17:36:12.175Z,26.20
2019-01-15T17:39:00.819Z,26.37
2019-01-15T17:41:50.620Z,22.30
2019-01-15T17:44:49.059Z,29.03
2019-01-15T17:47:40.998Z,31.63
2019-01-15T17:50:50.253Z,29.43
2019-01-15T17:53:37.515Z,31.37
2019-01-15T17:56:38.748Z,35.43
2019-01-15T17:59:31.855Z,34.80
2019-01-15T18:02:27.405Z,40.80
2019-01-15T18:05:16.523Z,34.43
2019-01-15T18:08:08.670Z,40.70
2019-01-15T18:10:57.780Z,43.93
2019-01-15T18:13:45.962Z,36.03
2019-01-15T18:16:34.091Z,47.63
2019-01-15T18:19:14.980Z,44.97
2019-01-15T18:22:07.018Z,41.83
2019-01-15T18:25:01.964Z,44.23
2019-01-15T18:27:44.693Z,44.00
2019-01-15T18:30:36.849Z,47.03
2019-01-15T18:33:28.798Z,46.60
2019-01-15T18:36:08.583Z,36.47
2019-01-15T18:39:00.720Z,35.90
2019-01-15T18:41:50.321Z,35.73
2019-01-15T18:44:45.590Z,42.47
2019-01-15T18:47:42.000Z,33.70
2019-01-15T18:50:46.187Z,31.13
2019-01-15T18:53:38.306Z,30.90
2019-01-15T18:56:33.289Z,47.23
2019-01-15T18:59:26.889Z,50.73
2019-01-15T19:02:16.008Z,46.33
2019-01-15T19:05:03.926Z,58.33
2019-01-15T19:07:53.129Z,42.63
2019-01-15T19:11:00.639Z,32.93
2019-01-15T19:13:37.131Z,32.50
2019-01-15T19:16:19.118Z,30.97
2019-01-15T19:19:17.306Z,27.13
2019-01-15T19:22:03.956Z,32.13
2019-01-15T19:24:52.048Z,27.83
2019-01-15T19:27:46.486Z,27.57
2019-01-15T19:30:35.125Z,28.33
2019-01-15T19:34:02.562Z,29.13
2019-01-15T19:36:58.417Z,30.50
2019-01-15T19:39:50.608Z,31.10
2019-01-15T19:42:45.482Z,62.23
2019-01-15T19:45:25.790Z,66.47
2019-01-15T19:48:16.295Z,66.30
2019-01-15T19:51:05.449Z,41.13
2019-01-15T19:53:54.490Z,31.10
2019-01-15T19:56:52.903Z,23.53
2019-01-15T19:59:51.062Z,32.47
2019-01-15T20:02:55.677Z,46.47
2019-01-15T20:05:50.776Z,50.30
2019-01-15T20:08:38.357Z,54.07
2019-01-15T20:11:26.190Z,65.23
2019-01-15T20:14:33.464Z,76.23
2019-01-15T20:17:18.405Z,60.17
2019-01-15T20:20:24.572Z,38.83
2019-01-15T20:23:12.638Z,43.90
2019-01-15T20:26:07.746Z,45.07
2019-01-15T20:29:09.242Z,55.97
2019-01-15T20:32:04.191Z,60.60
2019-01-15T20:35:09.415Z,60.10
2019-01-15T20:38:01.282Z,61.43
2019-01-15T20:40:53.354Z,56.60
2019-01-15T20:43:48.558Z,62.37
2019-01-15T20:46:34.929Z,54.17
2019-01-15T20:49:22.866Z,46.27
2019-01-15T20:52:27.439Z,62.83
2019-01-15T20:55:25.463Z,85.70
2019-01-15T20:58:13.255Z,69.87
2019-01-15T21:01:02.449Z,70.33
2019-01-15T21:04:07.009Z,70.17
2019-01-15T21:06:58.917Z,69.00
2019-01-15T21:09:45.190Z,62.40
2019-01-15T21:12:46.518Z,59.60
2019-01-15T21:15:35.550Z,63.83
2019-01-15T21:18:24.206Z,65.37
2019-01-15T21:21:16.396Z,57.47
2019-01-15T21:24:05.477Z,69.10
2019-01-15T21:26:54.665Z,56.93
2019-01-15T21:29:31.116Z,55.60
2019-01-15T21:32:32.348Z,45.00
2019-01-15T21:35:37.660Z,40.83
2019-01-15T21:38:45.137Z,45.53
2019-01-15T21:41:33.005Z,44.83
2019-01-15T21:44:47.809Z,42.30
2019-01-15T21:47:41.771Z,43.83
2019-01-15T21:50:41.607Z,48.43
2019-01-15T21:53:45.811Z,42.93
2019-01-15T21:56:36.643Z,43.07
2019-01-15T21:59:24.524Z,46.33
2019-01-15T22:02:19.979Z,45.60
2019-01-15T22:05:14.899Z,43.50
2019-01-15T22:08:02.737Z,45.80
2019-01-15T22:10:56.937Z,45.63
2019-01-15T22:13:40.334Z,40.13
2019-01-15T22:16:22.982Z,38.80
2019-01-15T22:19:10.592Z,45.13
2019-01-15T22:22:28.929Z,49.87
2019-01-15T22:25:29.864Z,40.40
2019-01-15T22:28:39.362Z,42.73
2019-01-15T22:31:39.400Z,57.80
2019-01-15T22:34:41.306Z,54.90
2019-01-15T22:37:51.114Z,47.40
2019-01-15T22:40:39.891Z,45.47
2019-01-15T22:43:47.546Z,41.03
2019-01-15T22:46:55.380Z,38.13
2019-01-15T22:49:45.259Z,42.47
2019-01-15T22:52:32.924Z,36.23
2019-01-15T22:55:31.276Z,34.80
2019-01-15T22:58:27.408Z,30.97
2019-01-15T23:01:16.759Z,36.17
2019-01-15T23:04:18.287Z,35.67
2019-01-15T23:06:58.499Z,35.20
2019-01-15T23:09:42.918Z,38.47
2019-01-15T23:12:31.255Z,39.83
2019-01-15T23:15:23.613Z,40.20
2019-01-15T23:18:13.869Z,42.97
2019-01-15T23:21:12.139Z,42.97
2019-01-15T23:24:01.528Z,42.23
2019-01-15T23:27:00.042Z,41.77
2019-01-15T23:29:47.919Z,48.77
2019-01-15T23:32:40.315Z,37.63
2019-01-15T23:35:38.667Z,41.13
2019-01-15T23:38:27.912Z,35.80
2019-01-15T23:41:15.832Z,40.73
2019-01-15T23:44:08.047Z,36.60
2019-01-15T23:47:03.394Z,32.40
2019-01-15T23:49:58.894Z,25.57
2019-01-15T23:52:58.507Z,30.83
2019-01-15T23:55:50.758Z,31.13
2019-01-15T23:58:45.938Z,26.47
